CDT,Max TemperatureF,Mean TemperatureF,Min TemperatureF,Max Dew PointF,MeanDew PointF,Min DewpointF,Max Humidity, Mean Humidity, Min Humidity, Max Sea Level PressureIn, Mean Sea Level PressureIn, Min Sea Level PressureIn, Max VisibilityMiles, Mean VisibilityMiles, Min VisibilityMiles, Max Wind SpeedMPH, Mean Wind SpeedMPH, Max Gust SpeedMPH,PrecipitationIn, CloudCover, Events, WindDirDegrees
2014-5-1,47,42,37,41,38,36,98,88,68,29.76,29.67,29.61,10,9,3,12,5,,0.04,8,Rain,282
2014-5-2,48,44,40,43,39,36,99,85,65,29.75,29.70,29.65,10,10,4,12,5,20,0.03,8,Rain,256
2014-5-3,55,47,39,42,35,29,99,67,38,29.85,29.73,29.63,10,10,3,16,6,25,0.01,5,Rain,284
2014-5-4,56,46,36,33,26,20,64,46,26,30.06,30.01,29.86,10,10,4,15,7,21,0.00,0,,326
2014-5-5,54,46,37,35,33,30,85,65,47,30.10,30.05,29.99,10,10,10,15,8,18,0.00,5,Rain,97
2014-5-6,57,44,33,34,32,28,93,56,40,30.09,30.02,29.96,10,10,10,21,9,28,0.00,1,,91
2014-5-7,49,44,41,44,40,33,95,82,68,30.01,29.89,29.83,10,9,2,29,13,43,0.21,7,Rain-Thunderstorm,85
2014-5-8,70,58,45,61,52,44,94,83,69,29.85,29.76,29.63,10,8,4,14,9,18,0.00,6,Rain,113
2014-5-9,68,57,46,59,47,39,96,77,67,29.80,29.64,29.56,10,10,7,23,11,31,0.06,7,Rain,230
2014-5-10,68,54,39,49,35,24,89,53,19,29.94,29.88,29.79,10,10,10,12,6,20,0.00,2,Rain,252
2014-5-11,74,63,52,61,51,41,94,70,46,29.94,29.91,29.87,10,10,7,17,4,26,0.08,5,Rain,128
2014-5-12,73,63,53,64,58,53,99,91,68,29.90,29.81,29.75,10,6,2,14,8,21,0.65,7,Rain-Thunderstorm,116
2014-5-13,63,54,44,60,44,36,98,77,59,30.13,29.94,29.73,10,9,2,17,9,26,0.01,7,Rain-Thunderstorm,265
2014-5-14,55,46,38,37,31,26,84,54,33,30.21,30.15,30.09,10,10,10,13,6,20,0.03,1,,313
2014-5-15,50,42,35,34,28,24,79,55,39,30.09,30.04,29.99,10,10,10,16,10,26,0.00,5,,12
2014-5-16,47,37,27,31,26,23,90,59,41,30.07,30.03,30.01,10,10,10,12,3,16,0.00,5,,295
2014-5-17,59,42,25,32,27,24,96,56,27,30.06,30.02,30.00,10,10,7,15,4,26,0.00,3,,264
2014-5-18,70,52,36,37,33,30,82,48,24,30.12,30.09,30.06,10,10,10,13,5,20,0.00,2,Rain,223
2014-5-19,62,50,40,48,41,34,95,75,36,30.15,30.07,29.92,10,9,2,20,6,26,1.31,5,Rain-Thunderstorm,137
2014-5-20,70,58,47,58,52,45,96,79,55,29.90,29.85,29.83,10,9,4,14,6,17,0.02,3,Rain,83
2014-5-21,69,58,47,56,48,44,100,69,44,30.03,29.91,29.84,10,8,0,16,4,29,0.00,2,Fog,288
2014-5-22,66,55,45,45,42,39,90,62,40,30.19,30.11,30.03,10,10,10,13,6,22,0.00,3,,330
2014-5-23,69,52,36,44,41,34,96,63,40,30.25,30.21,30.18,10,10,10,13,3,17,0.00,1,,109
2014-5-24,77,58,41,46,43,40,95,57,28,30.25,30.18,30.11,10,10,10,12,3,21,0.00,0,,210
2014-5-25,80,61,42,53,45,38,95,55,23,30.14,30.07,29.97,10,10,10,12,2,17,0.00,1,,218
2014-5-26,81,71,61,65,60,52,97,70,50,29.99,29.94,29.88,10,9,1,14,5,20,0.97,4,Rain-Thunderstorm,230
2014-5-27,72,67,61,64,61,50,99,86,65,30.00,29.94,29.88,10,9,4,12,5,,0.26,7,Rain,83
2014-5-28,72,62,52,52,45,36,85,56,26,30.14,30.08,30.00,10,10,10,10,6,16,0.00,2,,60
2014-5-29,78,60,43,54,48,42,97,63,30,30.19,30.14,30.11,10,10,10,10,3,,0.00,0,,90
2014-5-30,82,64,46,55,51,45,97,62,35,30.23,30.18,30.14,10,10,10,12,2,18,0.00,0,,125
2014-5-31,85,66,48,53,50,46,93,53,27,30.19,30.12,30.02,10,10,10,14,5,21,0.00,1,,167